EIHN weather

Hacketstown Aerodrome
Hacketstown, County Carlow, Ireland

Public forecast

Using degrees Celsius for public forecast. Weather courtesy of forecast.io.

Closest aviation weather report (METAR) to Hacketstown Aerodrome

Closest report is Casement Air Base, 27.0 nm (50.1 km) N. Retrieved 2020/07/05 13:00 UTC (42 minutes ago):

EIME 051300Z 26027G40KT 9999 FEW020 SCT030 BKN045 15/07 Q1007

Closest aviation forecast (TAF) to Hacketstown Aerodrome

Closest forecast is Dublin Airport, 35.4 nm (65.6 km) NNE. Retrieved 2020/07/05 12:09 UTC (2 hours ago):

TAF EIDW 051100Z 0512/0612 26022G34KT 9999 FEW018 SCT030 TEMPO 0512/0520 -SHRA SCT018CB TEMPO 0512/0518 26024G39KT PROB40 TEMPO 0512/0518 5000 SHRA BECMG 0519/0521 27016G28KT TEMPO 0606/0609 31014KT